Gorodets, Russia
Current Conditions -  °F | °C
As of 4:00 PM on Sunday 21 Dec 2014 (Local Time) from UWGG Reporting Station
Overcast Overcast  
Wind Chill: 28°   Ceiling: 2600
Heat Index: 36°   Visibility: 6mi
Dew Point: 30°   Wind: 11mph
Humidity: 81%   Direction: 210°SSW
Pressure: 29.5"   Gusts: NA
Location:  56.65°N, 43.48°E
Report Text: UWGG 211300Z 21005MPS 9999 OVC026 02/M01 Q0999 TEMPO 1500SHSNRA BKN007CB 18190045 RMK QFE743
Loading
Personal Weather Stations






























Interactive Weather Map New forecast layout! Learn more

10-Day Weather Forecast

Advertisements
Track Severe Weather on mobile